createdAt,value
2022-12-01T00:01:16.896Z,51.77
2022-12-01T00:03:43.634Z,36.30
2022-12-01T00:06:16.289Z,36.83
2022-12-01T00:09:03.060Z,28.67
2022-12-01T00:11:29.988Z,16.83
2022-12-01T00:13:56.618Z,21.85
2022-12-01T00:16:27.266Z,17.50
2022-12-01T00:18:54.488Z,19.02
2022-12-01T00:21:23.308Z,6.88
2022-12-01T00:23:52.737Z,10.00
2022-12-01T00:26:21.504Z,7.50
2022-12-01T00:28:56.962Z,6.60
2022-12-01T00:31:24.219Z,18.60
2022-12-01T00:33:51.102Z,25.80
2022-12-01T00:36:18.176Z,44.10
2022-12-01T00:38:45.363Z,36.25
2022-12-01T00:41:12.592Z,29.95
2022-12-01T00:43:39.883Z,24.67
2022-12-01T00:46:06.823Z,12.48
2022-12-01T00:48:33.841Z,19.90
2022-12-01T00:51:00.640Z,15.13
2022-12-01T00:53:27.393Z,14.48
2022-12-01T00:55:54.752Z,13.10
2022-12-01T00:58:23.126Z,13.88
2022-12-01T01:00:56.615Z,12.30
2022-12-01T01:03:23.269Z,16.30
2022-12-01T01:05:50.372Z,27.13
2022-12-01T01:08:16.980Z,21.55
2022-12-01T01:10:46.133Z,27.75
2022-12-01T01:13:17.613Z,20.17
2022-12-01T01:15:44.576Z,20.25
2022-12-01T01:18:12.566Z,15.90
2022-12-01T01:20:39.386Z,37.67
2022-12-01T01:23:06.249Z,14.10
2022-12-01T01:25:33.656Z,8.27
2022-12-01T01:28:00.692Z,5.50
2022-12-01T01:30:27.558Z,5.18
2022-12-01T01:32:54.289Z,6.45
2022-12-01T01:35:21.418Z,10.18
2022-12-01T01:37:48.153Z,20.95
2022-12-01T01:40:14.925Z,28.20
2022-12-01T01:42:41.603Z,21.10
2022-12-01T01:45:29.698Z,11.65
2022-12-01T01:47:59.830Z,10.20
2022-12-01T01:50:28.866Z,10.02
2022-12-01T01:53:01.369Z,7.75
2022-12-01T01:55:30.269Z,10.82
2022-12-01T01:57:57.412Z,17.63
2022-12-01T02:00:24.297Z,8.63
2022-12-01T02:02:52.566Z,9.07
2022-12-01T02:05:32.318Z,8.25
2022-12-01T02:08:00.376Z,7.20
2022-12-01T02:11:13.839Z,8.65
2022-12-01T02:13:40.482Z,9.18
2022-12-01T02:16:15.973Z,7.85
2022-12-01T02:19:23.519Z,7.45
2022-12-01T02:21:59.451Z,8.60
2022-12-01T02:24:26.134Z,6.80
2022-12-01T02:27:16.089Z,5.93
2022-12-01T02:30:15.100Z,7.55
2022-12-01T02:33:11.016Z,7.68
2022-12-01T02:35:47.764Z,6.60
2022-12-01T02:38:19.941Z,6.38
2022-12-01T02:41:10.419Z,6.30
2022-12-01T02:44:00.141Z,7.00
2022-12-01T02:46:35.645Z,6.95
2022-12-01T02:49:10.132Z,13.23
2022-12-01T02:51:40.228Z,12.00
2022-12-01T02:54:08.039Z,10.75
2022-12-01T02:56:34.744Z,9.32
2022-12-01T02:59:01.390Z,8.25
2022-12-01T03:01:32.935Z,10.95
2022-12-01T03:04:37.890Z,8.13
2022-12-01T03:07:37.171Z,5.38
2022-12-01T03:10:12.846Z,8.25
2022-12-01T03:12:42.429Z,14.10
2022-12-01T03:15:34.155Z,15.57
2022-12-01T03:18:22.056Z,11.57
2022-12-01T03:21:06.374Z,11.57
2022-12-01T03:23:37.899Z,10.45
2022-12-01T03:26:07.581Z,4.70
2022-12-01T03:28:39.885Z,8.00
2022-12-01T03:31:11.988Z,6.07
2022-12-01T03:33:45.921Z,20.98
2022-12-01T03:36:22.880Z,27.60
2022-12-01T03:38:55.771Z,14.07
2022-12-01T03:41:26.474Z,14.95
2022-12-01T03:44:00.808Z,17.10
2022-12-01T03:46:45.456Z,11.70
2022-12-01T03:49:13.960Z,10.98
2022-12-01T03:51:58.801Z,11.80
2022-12-01T03:54:33.952Z,14.93
2022-12-01T03:57:05.663Z,13.88
2022-12-01T03:59:36.084Z,15.27
2022-12-01T04:02:03.170Z,19.92
2022-12-01T04:04:29.968Z,24.33
2022-12-01T04:06:56.557Z,26.27
2022-12-01T04:09:23.227Z,24.30
2022-12-01T04:12:08.455Z,21.40
2022-12-01T04:14:35.062Z,19.25
2022-12-01T04:17:01.767Z,17.15
2022-12-01T04:19:28.425Z,16.17
2022-12-01T04:21:55.181Z,16.67
2022-12-01T04:24:21.808Z,16.50
2022-12-01T04:26:48.477Z,11.13
2022-12-01T04:29:15.180Z,21.25
2022-12-01T04:31:41.901Z,39.15
2022-12-01T04:34:10.381Z,39.35
2022-12-01T04:36:37.060Z,27.30
2022-12-01T04:39:04.091Z,19.90
2022-12-01T04:41:30.816Z,17.33
2022-12-01T04:43:57.552Z,16.93
2022-12-01T04:46:25.141Z,16.73
2022-12-01T04:48:52.182Z,16.88
2022-12-01T04:51:19.502Z,15.60
2022-12-01T04:53:46.164Z,20.65
2022-12-01T04:56:12.803Z,19.42
2022-12-01T04:58:39.680Z,21.30
2022-12-01T05:01:12.501Z,38.25
2022-12-01T05:03:41.116Z,40.53
2022-12-01T05:06:14.202Z,16.38
2022-12-01T05:08:41.028Z,19.95
2022-12-01T05:11:09.011Z,13.25
2022-12-01T05:13:40.366Z,11.18
2022-12-01T05:16:12.520Z,12.13
2022-12-01T05:18:40.402Z,10.23
2022-12-01T05:21:09.543Z,8.95
2022-12-01T05:23:37.869Z,9.35
2022-12-01T05:26:06.654Z,22.80
2022-12-01T05:28:33.659Z,27.52
2022-12-01T05:31:00.814Z,30.45
2022-12-01T05:33:28.920Z,39.88
2022-12-01T05:35:55.983Z,41.08
2022-12-01T05:38:22.907Z,24.63
2022-12-01T05:40:54.022Z,30.55
2022-12-01T05:43:27.188Z,29.13
2022-12-01T05:45:56.689Z,31.40
2022-12-01T05:48:23.736Z,31.88
2022-12-01T05:50:50.544Z,38.33
2022-12-01T05:53:17.746Z,47.88
2022-12-01T05:55:44.696Z,53.92
2022-12-01T05:58:12.567Z,48.60
2022-12-01T06:00:45.279Z,54.22
2022-12-01T06:03:12.787Z,35.08
2022-12-01T06:05:39.604Z,21.70
2022-12-01T06:08:06.289Z,20.13
2022-12-01T06:10:33.249Z,21.70
2022-12-01T06:12:59.932Z,16.20
2022-12-01T06:15:27.312Z,15.77
2022-12-01T06:17:54.164Z,13.93
2022-12-01T06:20:20.902Z,11.88
2022-12-01T06:22:47.689Z,10.93
2022-12-01T06:25:14.336Z,13.40
2022-12-01T06:27:40.961Z,14.32
2022-12-01T06:30:08.953Z,13.40
2022-12-01T06:32:36.041Z,51.80
2022-12-01T06:35:02.888Z,28.92
2022-12-01T06:37:29.621Z,28.40
2022-12-01T06:39:56.497Z,34.35
2022-12-01T06:42:23.306Z,30.30
2022-12-01T06:44:49.982Z,26.63
2022-12-01T06:47:16.820Z,44.15
2022-12-01T06:49:44.131Z,34.03
2022-12-01T06:52:10.790Z,35.15
2022-12-01T06:54:37.718Z,45.03
2022-12-01T06:57:04.677Z,44.65
2022-12-01T06:59:31.693Z,45.70
2022-12-01T07:01:58.980Z,43.72
2022-12-01T07:04:25.809Z,32.88
2022-12-01T07:06:52.488Z,36.28
2022-12-01T07:09:19.296Z,28.30
2022-12-01T07:11:46.457Z,25.60
2022-12-01T07:14:25.367Z,26.48
2022-12-01T07:16:52.491Z,29.02
2022-12-01T07:19:19.507Z,33.67
2022-12-01T07:21:46.307Z,30.35
2022-12-01T07:24:12.937Z,25.98
2022-12-01T07:26:45.164Z,35.80
2022-12-01T07:29:12.127Z,22.23
2022-12-01T07:31:39.038Z,19.35
2022-12-01T07:34:06.406Z,20.60
2022-12-01T07:36:33.192Z,26.58
2022-12-01T07:38:59.871Z,21.02
2022-12-01T07:41:26.508Z,17.50
2022-12-01T07:43:56.256Z,18.45
2022-12-01T07:46:25.939Z,19.70
2022-12-01T07:48:54.276Z,19.88
2022-12-01T07:51:22.135Z,23.63
2022-12-01T07:53:50.575Z,31.52
2022-12-01T07:56:18.768Z,55.63
2022-12-01T07:58:45.629Z,51.90
2022-12-01T08:01:17.484Z,33.08
2022-12-01T08:03:45.391Z,32.80
2022-12-01T08:06:12.185Z,33.78
2022-12-01T08:08:41.551Z,45.67
2022-12-01T08:11:14.918Z,42.67
2022-12-01T08:13:42.158Z,24.70
2022-12-01T08:16:13.781Z,31.25
2022-12-01T08:18:41.569Z,25.07
2022-12-01T08:21:11.292Z,24.02
2022-12-01T08:23:38.163Z,29.65
2022-12-01T08:26:11.580Z,28.45
2022-12-01T08:28:41.867Z,37.20
2022-12-01T08:31:12.789Z,45.83
2022-12-01T08:33:39.474Z,40.03
2022-12-01T08:36:06.959Z,39.40
2022-12-01T08:38:33.821Z,42.25
2022-12-01T08:41:02.630Z,38.20
2022-12-01T08:43:55.893Z,39.35
2022-12-01T08:46:16.802Z,47.55
2022-12-01T08:48:43.747Z,42.08
2022-12-01T08:51:15.893Z,58.53
2022-12-01T08:53:45.968Z,31.83
2022-12-01T08:56:18.103Z,33.20
2022-12-01T08:58:44.929Z,40.53
2022-12-01T09:01:14.675Z,128.80
2022-12-01T09:03:43.183Z,38.05
2022-12-01T09:06:16.398Z,30.92
2022-12-01T09:08:44.059Z,32.65
2022-12-01T09:11:13.953Z,33.28
2022-12-01T09:13:41.680Z,44.75
2022-12-01T09:16:12.281Z,36.33
2022-12-01T09:18:39.864Z,31.67
2022-12-01T09:21:18.044Z,31.00
2022-12-01T09:23:45.631Z,30.38
2022-12-01T09:26:18.104Z,38.85
2022-12-01T09:28:46.024Z,29.65
2022-12-01T09:31:13.905Z,31.67
2022-12-01T09:33:40.834Z,20.85
2022-12-01T09:36:09.021Z,23.02
2022-12-01T09:38:36.934Z,33.30
2022-12-01T09:41:20.257Z,40.20
2022-12-01T09:44:14.055Z,36.42
2022-12-01T09:47:12.361Z,39.95
2022-12-01T09:49:47.966Z,41.45
2022-12-01T09:52:17.264Z,44.92
2022-12-01T09:54:43.943Z,38.75
2022-12-01T09:57:35.465Z,34.40
2022-12-01T10:00:13.207Z,41.42
2022-12-01T10:02:52.977Z,25.90
2022-12-01T10:05:22.649Z,29.90
2022-12-01T10:08:05.235Z,28.87
2022-12-01T10:10:38.202Z,20.42
2022-12-01T10:13:18.032Z,19.42
2022-12-01T10:15:53.863Z,12.48
2022-12-01T10:18:49.820Z,16.38
2022-12-01T10:21:42.527Z,18.33
2022-12-01T10:24:27.196Z,20.40
2022-12-01T10:27:31.508Z,11.32
2022-12-01T10:30:04.135Z,19.38
2022-12-01T10:32:51.368Z,12.73
2022-12-01T10:35:20.964Z,12.13
2022-12-01T10:37:56.331Z,9.07
2022-12-01T10:40:24.269Z,8.52
2022-12-01T10:42:51.412Z,15.73
2022-12-01T10:45:27.226Z,62.70
2022-12-01T10:48:20.000Z,57.92
2022-12-01T10:50:53.953Z,41.58
2022-12-01T10:53:23.701Z,94.77
2022-12-01T10:56:00.123Z,18.40
2022-12-01T10:58:27.170Z,32.42
2022-12-01T11:01:01.688Z,23.40
2022-12-01T11:03:32.432Z,27.67
2022-12-01T11:06:03.336Z,34.30
2022-12-01T11:08:55.472Z,22.37
2022-12-01T11:11:37.875Z,15.55
2022-12-01T11:14:20.526Z,18.88
2022-12-01T11:16:50.167Z,24.58
2022-12-01T11:19:34.988Z,43.45
2022-12-01T11:22:19.139Z,45.58
2022-12-01T11:24:58.295Z,24.55
2022-12-01T11:27:28.888Z,18.87
2022-12-01T11:30:00.377Z,23.98
2022-12-01T11:32:32.857Z,23.73
2022-12-01T11:35:21.404Z,15.30
2022-12-01T11:38:20.973Z,15.63
2022-12-01T11:40:51.329Z,12.38
2022-12-01T11:43:30.491Z,17.50
2022-12-01T11:45:59.890Z,17.43
2022-12-01T11:48:29.434Z,17.48
2022-12-01T11:51:04.323Z,19.90
2022-12-01T11:56:19.604Z,20.00
2022-12-01T11:58:48.876Z,26.25
2022-12-01T12:01:40.449Z,26.48
2022-12-01T12:04:25.143Z,31.92
2022-12-01T12:07:02.377Z,36.97
2022-12-01T12:09:54.097Z,40.03
2022-12-01T12:12:32.957Z,26.07
2022-12-01T12:15:31.702Z,27.42
2022-12-01T12:18:04.366Z,25.77
2022-12-01T12:20:47.767Z,19.85
2022-12-01T12:23:45.017Z,20.73
2022-12-01T12:26:27.116Z,27.25
2022-12-01T12:29:00.789Z,29.65
2022-12-01T12:32:27.585Z,23.83
2022-12-01T12:35:38.536Z,37.63
2022-12-01T12:38:32.967Z,18.80
2022-12-01T12:41:29.580Z,16.88
2022-12-01T12:44:08.425Z,47.35
2022-12-01T12:47:01.502Z,44.60
2022-12-01T12:49:50.042Z,40.95
2022-12-01T12:52:31.222Z,33.97
2022-12-01T12:55:03.768Z,37.83
2022-12-01T12:57:37.350Z,27.30
2022-12-01T13:00:13.360Z,27.97
2022-12-01T13:02:45.323Z,34.00
2022-12-01T13:05:35.759Z,65.00
2022-12-01T13:08:16.068Z,47.80
2022-12-01T13:11:21.388Z,35.63
2022-12-01T13:13:53.966Z,30.25
2022-12-01T13:16:32.614Z,32.70
2022-12-01T13:19:16.700Z,27.73
2022-12-01T13:21:47.002Z,28.57
2022-12-01T13:24:23.409Z,24.50
2022-12-01T13:26:56.177Z,28.50
2022-12-01T13:29:25.107Z,25.60
2022-12-01T13:31:54.057Z,27.70
2022-12-01T13:34:28.900Z,23.67
2022-12-01T13:36:56.429Z,22.95
2022-12-01T13:39:29.511Z,24.20
2022-12-01T13:42:21.658Z,27.30
2022-12-01T13:44:51.291Z,24.50
2022-12-01T13:47:21.325Z,31.13
2022-12-01T13:49:50.737Z,26.58
2022-12-01T13:52:28.953Z,28.10
2022-12-01T13:55:04.378Z,23.70
2022-12-01T13:57:33.794Z,25.03
2022-12-01T14:00:03.487Z,20.93
2022-12-01T14:02:34.737Z,18.93
2022-12-01T14:05:23.322Z,20.30
2022-12-01T14:07:52.759Z,24.03
2022-12-01T14:10:27.171Z,27.08
2022-12-01T14:12:57.844Z,30.67
2022-12-01T14:15:35.822Z,33.42
2022-12-01T14:18:05.413Z,30.87
2022-12-01T14:20:37.414Z,29.40
2022-12-01T14:23:14.204Z,29.97
2022-12-01T14:25:42.754Z,24.52
2022-12-01T14:28:16.950Z,26.23
2022-12-01T14:30:46.252Z,35.42
2022-12-01T14:33:51.403Z,37.58
2022-12-01T14:36:23.742Z,38.57
2022-12-01T14:38:59.653Z,44.87
2022-12-01T14:41:29.347Z,44.10
2022-12-01T14:44:05.533Z,43.33
2022-12-01T14:46:43.195Z,47.50
2022-12-01T14:49:15.675Z,55.97
2022-12-01T14:51:47.322Z,56.03
2022-12-01T14:54:32.834Z,57.78
2022-12-01T14:57:07.397Z,54.47
2022-12-01T14:59:36.012Z,51.60
2022-12-01T15:02:09.136Z,56.17
2022-12-01T15:05:07.788Z,50.07
2022-12-01T15:07:54.310Z,59.17
2022-12-01T15:10:35.303Z,59.10
2022-12-01T15:13:22.564Z,173.23
2022-12-01T15:15:55.492Z,130.63
2022-12-01T15:18:26.924Z,58.07
2022-12-01T15:21:05.345Z,56.00
2022-12-01T15:23:32.025Z,67.13
2022-12-01T15:25:58.816Z,64.70
2022-12-01T15:28:33.804Z,78.70
2022-12-01T15:33:37.828Z,49.23
2022-12-01T15:36:06.769Z,49.13
2022-12-01T15:38:36.934Z,40.80
2022-12-01T15:43:59.032Z,60.60
2022-12-01T15:46:31.647Z,65.97
2022-12-01T15:49:27.408Z,52.10
2022-12-01T15:51:54.929Z,55.90
2022-12-01T15:54:25.660Z,113.73
2022-12-01T15:56:55.048Z,57.47
2022-12-01T15:59:38.997Z,84.63
2022-12-01T16:02:15.904Z,134.55
2022-12-01T16:04:43.678Z,191.13
2022-12-01T16:07:11.588Z,123.40
2022-12-01T16:09:42.585Z,111.47
2022-12-01T16:12:09.254Z,66.47
2022-12-01T16:14:36.847Z,64.07
2022-12-01T16:17:05.008Z,69.00
2022-12-01T16:19:33.771Z,64.53
2022-12-01T16:22:12.664Z,57.27
2022-12-01T16:25:06.559Z,73.73
2022-12-01T16:27:40.984Z,69.17
2022-12-01T16:30:22.114Z,86.93
2022-12-01T16:32:52.627Z,75.90
2022-12-01T16:35:31.508Z,86.33
2022-12-01T16:37:58.702Z,100.50
2022-12-01T16:40:26.381Z,59.63
2022-12-01T16:42:53.103Z,71.30
2022-12-01T16:45:20.494Z,65.87
2022-12-01T16:47:48.618Z,54.50
2022-12-01T16:50:17.708Z,71.50
2022-12-01T16:52:45.740Z,51.83
2022-12-01T16:55:46.608Z,49.70
2022-12-01T16:58:13.472Z,47.53
2022-12-01T17:00:40.280Z,41.47
2022-12-01T17:03:07.302Z,46.23
2022-12-01T17:05:34.608Z,50.23
2022-12-01T17:08:01.421Z,52.03
2022-12-01T17:10:28.112Z,58.67
2022-12-01T17:12:54.772Z,69.53
2022-12-01T17:15:21.532Z,86.83
2022-12-01T17:17:48.555Z,80.80
2022-12-01T17:20:15.695Z,78.43
2022-12-01T17:22:42.323Z,78.63
2022-12-01T17:25:09.888Z,63.03
2022-12-01T17:27:37.739Z,69.83
2022-12-01T17:30:06.468Z,55.87
2022-12-01T17:32:33.183Z,53.07
2022-12-01T17:34:59.795Z,54.60
2022-12-01T17:37:28.066Z,53.87
2022-12-01T17:39:54.885Z,51.87
2022-12-01T17:42:21.885Z,52.33
2022-12-01T17:44:48.952Z,53.97
2022-12-01T17:47:16.015Z,95.80
2022-12-01T17:49:42.735Z,76.77
2022-12-01T17:52:09.448Z,66.77
2022-12-01T17:54:36.273Z,62.77
2022-12-01T17:57:02.984Z,45.90
2022-12-01T17:59:30.175Z,53.93
2022-12-01T18:01:56.976Z,42.00
2022-12-01T18:04:23.604Z,37.43
2022-12-01T18:06:54.100Z,31.87
2022-12-01T18:09:21.556Z,50.27
2022-12-01T18:11:48.987Z,37.73
2022-12-01T18:14:17.922Z,34.67
2022-12-01T18:16:45.501Z,54.67
2022-12-01T18:19:12.843Z,44.30
2022-12-01T18:21:40.352Z,50.13
2022-12-01T18:24:09.377Z,38.93
2022-12-01T18:26:37.904Z,46.80
2022-12-01T18:29:07.883Z,35.57
2022-12-01T18:31:35.024Z,31.50
2022-12-01T18:34:06.846Z,32.07
2022-12-01T18:36:35.484Z,33.00
2022-12-01T18:39:04.393Z,32.37
2022-12-01T18:41:31.820Z,35.23
2022-12-01T18:43:58.674Z,41.07
2022-12-01T18:46:25.621Z,36.80
2022-12-01T18:49:03.184Z,39.63
2022-12-01T18:51:32.023Z,36.77
2022-12-01T18:54:00.460Z,33.83
2022-12-01T18:56:28.029Z,26.03
2022-12-01T18:58:56.206Z,31.30
2022-12-01T19:01:28.678Z,55.37
2022-12-01T19:03:56.516Z,30.20
2022-12-01T19:06:24.428Z,32.00
2022-12-01T19:08:52.417Z,32.23
2022-12-01T19:11:19.867Z,38.63
2022-12-01T19:13:47.407Z,25.73
2022-12-01T19:16:16.823Z,22.43
2022-12-01T19:18:43.559Z,28.50
2022-12-01T19:21:12.240Z,28.27
2022-12-01T19:23:39.250Z,27.13
2022-12-01T19:26:07.815Z,28.07
2022-12-01T19:28:36.197Z,30.40
2022-12-01T19:31:07.995Z,40.83
2022-12-01T19:33:35.016Z,46.20
2022-12-01T19:36:11.007Z,34.70
2022-12-01T19:38:38.653Z,87.17
2022-12-01T19:41:06.529Z,59.90
2022-12-01T19:43:34.701Z,105.53
2022-12-01T19:46:21.827Z,78.87
2022-12-01T19:48:56.135Z,52.83
2022-12-01T19:51:31.864Z,48.42
2022-12-01T19:53:58.777Z,30.87
2022-12-01T19:56:25.512Z,25.17
2022-12-01T19:58:52.308Z,26.17
2022-12-01T20:01:20.178Z,26.60
2022-12-01T20:03:49.304Z,25.90
2022-12-01T20:06:24.643Z,22.43
2022-12-01T20:08:52.413Z,20.37
2022-12-01T20:11:19.075Z,19.87
2022-12-01T20:13:47.301Z,25.20
2022-12-01T20:16:19.663Z,25.60
2022-12-01T20:18:47.447Z,22.47
2022-12-01T20:21:17.647Z,24.43
2022-12-01T20:23:49.824Z,19.57
2022-12-01T20:26:18.790Z,19.73
2022-12-01T20:28:47.822Z,20.57
2022-12-01T20:31:21.281Z,27.33
2022-12-01T20:33:49.214Z,19.37
2022-12-01T20:36:16.857Z,16.00
2022-12-01T20:38:43.739Z,17.67
2022-12-01T20:41:11.194Z,27.87
2022-12-01T20:43:38.200Z,23.00
2022-12-01T20:46:05.615Z,19.83
2022-12-01T20:48:33.010Z,19.03
2022-12-01T20:51:01.395Z,13.93
2022-12-01T20:53:28.224Z,13.53
2022-12-01T20:55:55.687Z,14.57
2022-12-01T20:58:22.684Z,15.90
2022-12-01T21:00:49.499Z,15.73
2022-12-01T21:03:16.252Z,20.97
2022-12-01T21:05:43.966Z,21.37
2022-12-01T21:08:13.035Z,22.83
2022-12-01T21:10:43.767Z,33.30
2022-12-01T21:13:41.109Z,26.47
2022-12-01T21:16:19.160Z,23.00
2022-12-01T21:18:55.944Z,17.27
2022-12-01T21:21:31.239Z,17.13
2022-12-01T21:24:17.164Z,19.87
2022-12-01T21:26:52.918Z,18.60
2022-12-01T21:29:22.265Z,18.63
2022-12-01T21:31:52.179Z,17.63
2022-12-01T21:34:24.668Z,19.17
2022-12-01T21:36:57.639Z,18.83
2022-12-01T21:39:26.517Z,20.40
2022-12-01T21:41:56.297Z,18.80
2022-12-01T21:44:30.206Z,17.90
2022-12-01T21:46:58.208Z,21.43
2022-12-01T21:49:45.251Z,28.57
2022-12-01T21:52:23.541Z,23.70
2022-12-01T21:54:51.608Z,23.37
2022-12-01T21:57:43.007Z,33.20
2022-12-01T22:00:25.820Z,22.20
2022-12-01T22:02:58.673Z,21.13
2022-12-01T22:05:37.637Z,33.57
2022-12-01T22:08:25.664Z,22.20
2022-12-01T22:10:55.404Z,21.27
2022-12-01T22:13:27.374Z,24.57
2022-12-01T22:15:55.348Z,21.33
2022-12-01T22:18:32.442Z,22.40
2022-12-01T22:21:01.117Z,27.10
2022-12-01T22:23:33.994Z,26.27
2022-12-01T22:26:01.264Z,22.27
2022-12-01T22:28:28.112Z,19.27
2022-12-01T22:30:55.063Z,41.87
2022-12-01T22:33:24.307Z,29.73
2022-12-01T22:35:52.914Z,26.03
2022-12-01T22:38:21.581Z,24.07
2022-12-01T22:40:48.143Z,22.07
2022-12-01T22:43:18.092Z,20.07
2022-12-01T22:45:50.696Z,20.57
2022-12-01T22:48:40.347Z,18.53
2022-12-01T22:51:12.936Z,19.43
2022-12-01T22:53:41.093Z,19.60
2022-12-01T22:56:20.712Z,15.90
2022-12-01T22:58:47.473Z,15.10
2022-12-01T23:01:24.192Z,15.93
2022-12-01T23:03:54.581Z,17.53
2022-12-01T23:07:00.360Z,21.67
2022-12-01T23:09:37.858Z,15.77
2022-12-01T23:12:22.697Z,15.03
2022-12-01T23:14:53.427Z,16.45
2022-12-01T23:17:26.097Z,14.60
2022-12-01T23:20:15.858Z,15.17
2022-12-01T23:22:42.567Z,13.87
2022-12-01T23:25:15.154Z,13.67
2022-12-01T23:27:44.455Z,13.60
2022-12-01T23:30:13.125Z,13.53
2022-12-01T23:32:39.989Z,19.30
2022-12-01T23:35:13.873Z,19.33
2022-12-01T23:37:43.788Z,21.70
2022-12-01T23:40:33.122Z,24.42
2022-12-01T23:43:13.011Z,22.87
2022-12-01T23:45:39.738Z,20.97
2022-12-01T23:48:17.195Z,13.67
2022-12-01T23:50:43.943Z,12.90
2022-12-01T23:53:24.575Z,11.70
2022-12-01T23:55:51.608Z,13.80
2022-12-01T23:58:18.212Z,12.60
